Time;durP1;ratioP1;P1;durP2;ratioP2;P2;SDS_P1;SDS_P2;PMS_P1;PMS_P2;Temp;Humidity;BMP_temperature;BMP_pressure;BME280_temperature;BME280_humidity;BME280_pressure;Samples;Min_cycle;Max_cycle;Signal;HPM_P1;HPM_P2
2023/03/18 00:01:16;;;;;;;19.42;4.65;;;9.30;99.90;;;;;;5032733;28;20025;-46
2023/03/18 00:03:42;;;;;;;12.52;4.25;;;9.30;99.90;;;;;;5050396;28;20071;-51
2023/03/18 00:06:17;;;;;;;16.13;3.53;;;9.30;99.90;;;;;;5032387;28;20371;-45
2023/03/18 00:08:45;;;;;;;14.15;3.90;;;9.30;99.90;;;;;;5050338;28;20199;-44
2023/03/18 00:11:12;;;;;;;19.13;3.95;;;9.30;99.90;;;;;;5032415;28;20028;-46
2023/03/18 00:13:40;;;;;;;19.17;3.58;;;9.30;99.90;;;;;;5034601;28;20016;-45
2023/03/18 00:16:09;;;;;;;18.27;4.22;;;9.30;99.90;;;;;;5033157;28;20057;-44
2023/03/18 00:18:35;;;;;;;16.20;3.63;;;9.30;99.90;;;;;;5034360;28;20033;-50
2023/03/18 00:21:01;;;;;;;17.90;3.90;;;9.30;99.90;;;;;;5034344;28;20029;-47
2023/03/18 00:23:27;;;;;;;16.50;4.32;;;9.30;99.90;;;;;;5034177;28;20032;-48
2023/03/18 00:25:55;;;;;;;17.05;4.47;;;9.30;99.90;;;;;;5027540;28;20538;-46
2023/03/18 00:28:24;;;;;;;17.00;4.93;;;9.30;99.90;;;;;;5025526;28;20025;-52
2023/03/18 00:30:50;;;;;;;10.15;4.25;;;9.30;99.90;;;;;;5034075;28;20437;-46
2023/03/18 00:33:17;;;;;;;12.20;4.10;;;9.40;99.90;;;;;;5034082;28;20052;-44
2023/03/18 00:35:44;;;;;;;20.63;5.07;;;9.30;99.90;;;;;;5020345;28;20402;-50
2023/03/18 00:38:19;;;;;;;16.45;4.07;;;9.40;99.90;;;;;;5034004;28;20116;-48
2023/03/18 00:41:09;;;;;;;16.15;5.50;;;9.40;99.90;;;;;;5018309;28;20014;-47
2023/03/18 00:43:44;;;;;;;17.27;4.13;;;9.40;99.90;;;;;;5024164;28;20029;-50
2023/03/18 00:46:15;;;;;;;11.50;4.10;;;9.40;99.90;;;;;;5033623;28;20112;-48
2023/03/18 00:48:41;;;;;;;14.85;4.38;;;9.50;99.90;;;;;;5033906;28;20052;-44
2023/03/18 00:51:09;;;;;;;24.30;4.95;;;9.60;99.90;;;;;;5033801;28;20425;-51
2023/03/18 00:53:35;;;;;;;21.90;5.97;;;9.60;99.90;;;;;;5033709;28;20066;-48
2023/03/18 00:56:01;;;;;;;23.33;5.30;;;9.70;99.90;;;;;;5027850;28;20029;-53
2023/03/18 00:58:27;;;;;;;17.15;5.03;;;9.70;99.90;;;;;;5025270;28;20033;-44
2023/03/18 01:00:52;;;;;;;19.63;5.10;;;9.80;99.90;;;;;;5033588;28;20029;-51
2023/03/18 01:03:18;;;;;;;19.38;5.13;;;9.80;99.90;;;;;;5033698;28;20107;-47
2023/03/18 01:05:44;;;;;;;17.83;6.40;;;9.90;99.90;;;;;;5033466;28;20014;-53
2023/03/18 01:08:10;;;;;;;15.93;5.50;;;10.00;99.90;;;;;;5033345;28;20021;-51
2023/03/18 01:10:35;;;;;;;13.65;5.20;;;10.00;99.90;;;;;;5033488;28;20035;-45
2023/03/18 01:13:01;;;;;;;14.90;4.47;;;10.00;99.90;;;;;;5033307;28;20075;-50
2023/03/18 01:15:27;;;;;;;13.02;5.10;;;10.00;99.90;;;;;;5040432;28;20052;-49
2023/03/18 01:17:55;;;;;;;12.25;5.10;;;10.00;99.90;;;;;;5053036;28;20037;-46
2023/03/18 01:20:22;;;;;;;16.33;5.00;;;10.00;99.90;;;;;;5053053;28;20017;-56
2023/03/18 01:22:49;;;;;;;14.25;5.45;;;10.10;99.90;;;;;;5053020;28;20488;-49
2023/03/18 01:25:15;;;;;;;14.32;5.72;;;10.10;99.90;;;;;;5051804;28;20040;-49
2023/03/18 01:27:42;;;;;;;12.13;5.35;;;10.10;99.90;;;;;;5046118;28;20052;-46
2023/03/18 01:30:12;;;;;;;16.35;5.53;;;10.10;99.90;;;;;;5052837;28;20021;-49
2023/03/18 01:32:38;;;;;;;13.50;5.00;;;10.10;99.90;;;;;;5052963;28;20021;-47
2023/03/18 01:35:04;;;;;;;14.95;5.18;;;10.00;99.90;;;;;;5052667;28;20543;-47
2023/03/18 01:37:30;;;;;;;16.23;5.35;;;10.00;99.90;;;;;;5052828;28;20473;-48
2023/03/18 01:39:57;;;;;;;15.32;4.93;;;10.00;99.90;;;;;;5052680;28;20108;-46
2023/03/18 01:42:23;;;;;;;13.10;5.28;;;10.10;99.90;;;;;;5052584;28;20074;-46
2023/03/18 01:44:49;;;;;;;14.40;4.60;;;10.10;99.90;;;;;;5053025;28;20021;-46
2023/03/18 01:47:16;;;;;;;12.23;5.03;;;10.10;99.90;;;;;;5052870;28;20025;-45
2023/03/18 01:49:46;;;;;;;11.25;4.20;;;10.10;99.90;;;;;;5052525;28;20112;-45
2023/03/18 01:52:24;;;;;;;10.93;4.40;;;10.10;99.90;;;;;;5052764;28;20025;-48
2023/03/18 01:55:04;;;;;;;11.02;4.10;;;10.20;99.90;;;;;;5034998;28;20377;-44
2023/03/18 01:57:31;;;;;;;16.33;5.15;;;10.20;99.90;;;;;;5041419;28;20037;-46
2023/03/18 01:59:58;;;;;;;10.85;4.25;;;10.20;99.90;;;;;;5044821;28;20652;-48
2023/03/18 02:02:25;;;;;;;13.68;4.00;;;10.20;99.90;;;;;;5027768;28;20032;-54
2023/03/18 02:04:53;;;;;;;14.40;3.75;;;10.20;99.90;;;;;;5050116;28;20117;-47
2023/03/18 02:07:24;;;;;;;13.47;4.10;;;10.10;99.90;;;;;;5052292;28;20033;-52
2023/03/18 02:09:51;;;;;;;17.92;4.10;;;10.20;99.90;;;;;;5052049;28;20588;-48
2023/03/18 02:12:25;;;;;;;15.75;4.13;;;10.10;99.90;;;;;;5052308;28;20051;-46
2023/03/18 02:14:52;;;;;;;12.23;4.18;;;10.10;99.90;;;;;;5052590;28;20020;-44
2023/03/18 02:17:22;;;;;;;13.40;4.07;;;10.10;99.90;;;;;;5034176;28;20044;-46
2023/03/18 02:20:23;;;;;;;15.13;4.50;;;10.10;99.90;;;;;;5051826;28;20021;-44
2023/03/18 02:22:52;;;;;;;17.75;4.47;;;10.10;99.90;;;;;;5051880;28;20037;-47
2023/03/18 02:25:36;;;;;;;13.27;4.18;;;10.10;99.90;;;;;;5051792;28;20063;-54
2023/03/18 02:28:06;;;;;;;18.95;4.43;;;10.10;99.90;;;;;;5044794;28;20048;-50
2023/03/18 02:30:38;;;;;;;13.60;3.90;;;10.00;99.90;;;;;;5051671;28;20471;-55
2023/03/18 02:33:05;;;;;;;15.98;4.28;;;10.00;99.90;;;;;;5051955;28;20025;-44
2023/03/18 02:35:31;;;;;;;16.63;4.80;;;10.00;99.90;;;;;;5051593;28;20019;-50
2023/03/18 02:37:57;;;;;;;15.43;5.20;;;10.00;99.90;;;;;;5051565;28;20041;-48
2023/03/18 02:40:29;;;;;;;17.08;5.22;;;10.00;99.90;;;;;;5051529;28;20120;-47
2023/03/18 02:42:56;;;;;;;13.07;4.88;;;9.90;99.90;;;;;;5051495;28;20100;-56
2023/03/18 02:45:46;;;;;;;16.35;5.00;;;9.90;99.90;;;;;;5051795;28;20025;-48
2023/03/18 02:48:16;;;;;;;11.98;5.05;;;9.90;99.90;;;;;;5038494;28;20116;-53
2023/03/18 02:50:42;;;;;;;14.65;4.70;;;9.90;99.90;;;;;;5051406;28;20033;-46
2023/03/18 02:53:11;;;;;;;18.65;5.65;;;9.90;99.90;;;;;;5051121;28;20668;-44
2023/03/18 02:55:37;;;;;;;15.38;5.70;;;9.90;99.90;;;;;;5048956;28;20142;-44
2023/03/18 02:58:03;;;;;;;15.95;5.90;;;10.00;99.90;;;;;;5048776;28;20648;-49
2023/03/18 03:00:28;;;;;;;13.75;5.05;;;10.00;99.90;;;;;;5050282;28;20096;-53
2023/03/18 03:02:54;;;;;;;12.05;5.90;;;10.00;99.90;;;;;;5050846;28;20035;-50
2023/03/18 03:05:20;;;;;;;17.83;6.40;;;10.00;99.90;;;;;;5051182;28;20371;-51
2023/03/18 03:07:46;;;;;;;15.32;5.13;;;10.10;99.90;;;;;;5050894;28;20021;-49
2023/03/18 03:10:12;;;;;;;13.77;5.22;;;10.10;99.90;;;;;;5050964;28;20386;-55
2023/03/18 03:12:38;;;;;;;15.57;6.15;;;10.10;99.90;;;;;;5051021;28;20032;-44
2023/03/18 03:15:05;;;;;;;13.05;5.03;;;10.10;99.90;;;;;;5050897;28;20103;-44
2023/03/18 03:17:32;;;;;;;13.82;5.13;;;10.10;99.90;;;;;;5050797;28;20032;-44
2023/03/18 03:19:58;;;;;;;15.88;5.03;;;10.10;99.90;;;;;;5050837;28;20712;-44
2023/03/18 03:22:24;;;;;;;22.85;5.32;;;10.10;99.90;;;;;;5050771;28;20036;-44
2023/03/18 03:24:49;;;;;;;16.40;5.00;;;10.10;99.90;;;;;;5050863;28;20182;-45
2023/03/18 03:27:15;;;;;;;17.83;6.32;;;10.00;99.90;;;;;;5048554;28;20061;-47
2023/03/18 03:29:42;;;;;;;13.10;5.03;;;10.00;99.90;;;;;;5032990;28;20029;-53
2023/03/18 03:32:07;;;;;;;18.00;5.00;;;10.00;99.90;;;;;;5032693;28;20474;-45
2023/03/18 03:34:33;;;;;;;12.90;4.43;;;9.90;99.90;;;;;;5050667;28;20070;-44
2023/03/18 03:36:59;;;;;;;12.88;4.70;;;10.00;99.90;;;;;;5050511;28;20359;-47
2023/03/18 03:39:26;;;;;;;16.35;4.00;;;9.90;99.90;;;;;;5050495;28;20036;-45
2023/03/18 03:41:51;;;;;;;16.52;4.95;;;9.90;99.90;;;;;;5032635;28;20021;-45
2023/03/18 03:44:18;;;;;;;10.45;4.25;;;9.90;99.90;;;;;;5050438;28;20029;-45
2023/03/18 03:46:44;;;;;;;14.50;3.92;;;9.90;99.90;;;;;;5032901;28;20528;-45
2023/03/18 03:49:11;;;;;;;12.65;4.85;;;9.80;99.90;;;;;;5049843;28;20033;-44
2023/03/18 03:51:36;;;;;;;12.63;3.67;;;9.80;99.90;;;;;;5050454;28;20021;-45
2023/03/18 03:54:02;;;;;;;14.98;3.75;;;9.80;99.90;;;;;;5050398;28;20028;-50
2023/03/18 03:56:30;;;;;;;11.48;4.45;;;9.80;99.90;;;;;;5042418;28;20040;-44
2023/03/18 03:58:56;;;;;;;10.40;3.90;;;9.80;99.90;;;;;;5050493;28;20103;-49
2023/03/18 04:01:22;;;;;;;11.20;3.60;;;9.70;99.90;;;;;;5050380;28;20032;-47
2023/03/18 04:03:48;;;;;;;13.73;3.63;;;9.80;99.90;;;;;;5048834;28;20029;-47
2023/03/18 04:06:14;;;;;;;15.88;4.25;;;9.80;99.90;;;;;;5050232;28;20032;-48
2023/03/18 04:08:40;;;;;;;12.52;3.67;;;9.80;99.90;;;;;;5050283;28;20013;-51
2023/03/18 04:11:06;;;;;;;14.82;4.40;;;9.80;99.90;;;;;;5050395;28;20021;-49
2023/03/18 04:13:32;;;;;;;11.50;3.50;;;9.80;99.90;;;;;;5050256;28;20021;-48
2023/03/18 04:15:58;;;;;;;12.95;3.97;;;9.80;99.90;;;;;;5050164;28;20124;-50
2023/03/18 04:18:24;;;;;;;11.50;3.40;;;9.80;99.90;;;;;;5050105;28;20040;-54
2023/03/18 04:20:50;;;;;;;12.90;3.55;;;9.80;99.90;;;;;;5050174;28;20017;-48
2023/03/18 04:23:16;;;;;;;16.60;3.17;;;9.80;99.90;;;;;;5050544;28;20095;-45
2023/03/18 04:25:41;;;;;;;12.80;3.65;;;9.80;99.90;;;;;;5045274;28;20132;-52
2023/03/18 04:28:07;;;;;;;13.07;2.90;;;9.90;99.90;;;;;;5041519;28;20034;-44
2023/03/18 04:30:33;;;;;;;13.73;3.33;;;9.80;99.90;;;;;;5049994;28;20025;-47
2023/03/18 04:33:02;;;;;;;9.90;3.13;;;9.90;99.90;;;;;;5050151;28;20092;-45
2023/03/18 04:35:28;;;;;;;9.27;2.92;;;9.90;99.90;;;;;;5049919;28;20508;-45
2023/03/18 04:37:53;;;;;;;8.98;2.53;;;9.90;99.90;;;;;;5042074;28;20520;-49
2023/03/18 04:40:20;;;;;;;11.55;2.72;;;9.90;99.90;;;;;;5050045;28;20029;-49
2023/03/18 04:42:46;;;;;;;8.65;2.80;;;9.90;99.90;;;;;;5044816;28;20150;-45
2023/03/18 04:45:14;;;;;;;12.32;2.58;;;9.90;99.90;;;;;;5049975;28;20021;-44
2023/03/18 04:47:41;;;;;;;13.77;3.30;;;9.90;99.90;;;;;;5049734;28;20100;-45
2023/03/18 04:50:11;;;;;;;13.10;3.30;;;9.90;99.90;;;;;;5049901;28;20116;-48
2023/03/18 04:52:37;;;;;;;13.35;3.00;;;9.90;99.90;;;;;;5049606;28;20041;-50
2023/03/18 04:55:04;;;;;;;11.88;3.13;;;9.90;99.90;;;;;;5032089;28;20033;-51
2023/03/18 04:57:30;;;;;;;12.32;4.03;;;9.90;99.90;;;;;;5037842;28;20075;-56
2023/03/18 04:59:57;;;;;;;10.35;2.95;;;9.90;99.90;;;;;;5052089;28;20307;-56
2023/03/18 05:02:23;;;;;;;9.68;2.97;;;9.90;99.90;;;;;;5041421;28;20104;-53
2023/03/18 05:04:49;;;;;;;12.27;3.13;;;9.90;99.90;;;;;;5053182;28;20024;-55
2023/03/18 05:07:15;;;;;;;11.80;2.95;;;9.90;99.90;;;;;;5053245;28;20033;-51
2023/03/18 05:09:41;;;;;;;14.40;3.60;;;9.90;99.90;;;;;;5053471;28;20048;-44
2023/03/18 05:12:13;;;;;;;11.35;3.13;;;9.90;99.90;;;;;;5018157;28;20025;-46
2023/03/18 05:14:40;;;;;;;6.75;2.55;;;9.90;99.90;;;;;;5053238;28;20076;-52
2023/03/18 05:17:06;;;;;;;11.65;3.03;;;9.90;99.90;;;;;;5047538;28;20045;-45
2023/03/18 05:19:32;;;;;;;14.07;3.20;;;9.90;99.90;;;;;;5053337;28;20480;-46
2023/03/18 05:21:58;;;;;;;11.98;3.30;;;9.90;99.90;;;;;;5046927;28;20454;-51
2023/03/18 05:24:23;;;;;;;9.05;3.03;;;9.90;99.90;;;;;;5052960;28;20394;-44
2023/03/18 05:26:49;;;;;;;10.18;2.80;;;9.90;99.90;;;;;;5050966;28;20024;-50
2023/03/18 05:29:15;;;;;;;12.55;3.03;;;9.90;99.90;;;;;;5053008;28;20366;-46
2023/03/18 05:31:41;;;;;;;12.55;3.10;;;9.90;99.90;;;;;;5052914;28;20524;-48
2023/03/18 05:34:07;;;;;;;10.07;3.13;;;9.90;99.90;;;;;;5052942;28;20040;-51
2023/03/18 05:36:33;;;;;;;8.85;3.00;;;9.90;99.90;;;;;;5052949;28;20025;-47
2023/03/18 05:38:59;;;;;;;12.05;3.30;;;9.90;99.90;;;;;;5052529;28;20099;-52
2023/03/18 05:41:24;;;;;;;12.73;3.03;;;9.90;99.90;;;;;;5052800;28;20025;-52
2023/03/18 05:43:50;;;;;;;12.88;3.40;;;10.00;99.90;;;;;;5052619;28;20110;-49
2023/03/18 05:46:16;;;;;;;14.98;3.28;;;10.00;99.90;;;;;;5052622;28;20032;-44
2023/03/18 05:48:42;;;;;;;12.77;3.63;;;10.00;99.90;;;;;;5052670;28;20398;-51
2023/03/18 05:51:08;;;;;;;8.95;3.03;;;10.00;99.90;;;;;;5052716;28;20028;-49
2023/03/18 05:53:34;;;;;;;10.98;3.25;;;10.00;99.90;;;;;;5052834;28;20024;-48
2023/03/18 05:55:59;;;;;;;7.07;2.50;;;10.00;99.90;;;;;;5053784;28;20381;-58
2023/03/18 05:58:29;;;;;;;11.85;3.10;;;10.00;99.90;;;;;;5046059;28;20413;-53
2023/03/18 06:00:56;;;;;;;8.98;3.08;;;10.00;99.90;;;;;;5052130;28;20040;-51
2023/03/18 06:03:23;;;;;;;7.68;3.28;;;10.00;99.90;;;;;;5034651;28;20025;-50
2023/03/18 06:05:49;;;;;;;7.40;3.13;;;10.00;99.90;;;;;;5052234;28;20481;-47
2023/03/18 06:08:16;;;;;;;10.63;2.67;;;10.00;99.90;;;;;;5052035;28;20112;-45
2023/03/18 06:10:42;;;;;;;8.52;3.17;;;10.00;99.90;;;;;;5051409;28;20047;-46
2023/03/18 06:13:10;;;;;;;11.57;3.72;;;10.00;99.90;;;;;;5051842;28;20025;-49
2023/03/18 06:15:36;;;;;;;9.30;3.67;;;10.00;99.90;;;;;;5051849;28;20041;-50
2023/03/18 06:18:03;;;;;;;11.13;3.90;;;10.00;99.90;;;;;;5051963;28;20040;-44
2023/03/18 06:20:29;;;;;;;10.27;3.50;;;10.00;99.90;;;;;;5051909;28;20484;-44
2023/03/18 06:22:55;;;;;;;7.38;3.25;;;10.00;99.90;;;;;;5051711;28;20029;-53
2023/03/18 06:25:22;;;;;;;10.77;3.42;;;10.00;99.90;;;;;;5051696;28;20029;-48
2023/03/18 06:27:48;;;;;;;15.25;3.65;;;10.00;99.90;;;;;;5050811;28;20024;-48
2023/03/18 06:30:16;;;;;;;12.48;3.60;;;10.00;99.90;;;;;;5051317;28;20032;-45
2023/03/18 06:32:42;;;;;;;9.40;4.65;;;10.00;99.90;;;;;;5051442;28;20056;-43
2023/03/18 06:35:09;;;;;;;9.00;3.72;;;10.00;99.90;;;;;;5033718;28;20021;-48
2023/03/18 06:37:36;;;;;;;10.93;4.03;;;9.90;99.90;;;;;;5051347;28;20128;-52
2023/03/18 06:40:04;;;;;;;12.30;3.67;;;9.90;99.90;;;;;;5051611;28;20021;-43
2023/03/18 06:42:30;;;;;;;13.95;4.32;;;9.80;99.90;;;;;;5051406;28;20029;-45
2023/03/18 06:44:56;;;;;;;8.20;3.70;;;9.70;99.90;;;;;;5051360;28;20437;-43
2023/03/18 06:47:22;;;;;;;11.60;4.13;;;9.70;99.90;;;;;;5033336;28;20112;-46
2023/03/18 06:49:48;;;;;;;12.75;4.70;;;9.70;99.90;;;;;;5051227;28;20082;-43
2023/03/18 06:52:14;;;;;;;9.05;3.67;;;9.70;99.90;;;;;;5051120;28;20064;-43
2023/03/18 06:54:40;;;;;;;8.00;4.18;;;9.60;99.90;;;;;;5051234;28;20025;-46
2023/03/18 06:57:07;;;;;;;11.68;4.57;;;9.60;99.90;;;;;;5047390;28;20029;-42
2023/03/18 06:59:33;;;;;;;10.15;4.60;;;9.60;99.90;;;;;;5049217;28;20021;-45
2023/03/18 07:01:58;;;;;;;15.40;4.93;;;9.50;99.90;;;;;;5051144;28;20078;-43
2023/03/18 07:04:24;;;;;;;11.65;4.20;;;9.50;99.90;;;;;;5051021;28;20021;-43
2023/03/18 07:06:51;;;;;;;9.15;3.63;;;9.50;99.90;;;;;;5051115;28;20079;-42
2023/03/18 07:09:17;;;;;;;8.95;3.95;;;9.40;99.90;;;;;;5051100;28;20025;-43
2023/03/18 07:11:45;;;;;;;7.97;3.65;;;9.40;99.90;;;;;;5050709;28;20115;-43
2023/03/18 07:14:13;;;;;;;11.80;3.55;;;9.40;99.90;;;;;;5051012;28;20470;-43
2023/03/18 07:16:39;;;;;;;8.38;2.92;;;9.40;99.90;;;;;;5050615;28;20077;-47
2023/03/18 07:19:06;;;;;;;7.70;2.60;;;9.40;99.90;;;;;;5050853;28;20033;-44
2023/03/18 07:21:32;;;;;;;6.57;2.50;;;9.40;99.90;;;;;;5050741;28;20025;-45
2023/03/18 07:23:57;;;;;;;9.75;2.47;;;9.40;99.90;;;;;;5049440;28;20559;-48
2023/03/18 07:26:24;;;;;;;6.80;2.35;;;9.50;99.90;;;;;;5032318;28;20029;-48
2023/03/18 07:28:50;;;;;;;8.43;1.90;;;9.50;99.90;;;;;;5047336;28;20112;-45
2023/03/18 07:31:16;;;;;;;8.85;2.30;;;9.60;99.90;;;;;;5050471;28;20481;-49
2023/03/18 07:33:42;;;;;;;4.30;1.85;;;9.60;99.90;;;;;;5050453;28;20120;-43
2023/03/18 07:36:08;;;;;;;8.25;2.42;;;9.70;99.90;;;;;;5050437;28;20493;-48
2023/03/18 07:38:33;;;;;;;8.77;2.35;;;9.70;99.90;;;;;;5032629;28;20040;-49
2023/03/18 07:40:59;;;;;;;6.80;1.80;;;9.80;99.90;;;;;;5050162;28;20104;-44
2023/03/18 07:43:25;;;;;;;6.43;1.92;;;9.70;99.90;;;;;;5050440;28;20121;-48
2023/03/18 07:45:51;;;;;;;9.75;2.78;;;9.70;99.90;;;;;;5050200;28;20017;-48
2023/03/18 07:48:16;;;;;;;8.65;2.00;;;9.80;99.90;;;;;;5050272;28;20048;-43
2023/03/18 07:50:42;;;;;;;11.43;2.92;;;9.80;99.90;;;;;;5050177;28;20024;-48
2023/03/18 07:53:08;;;;;;;8.75;3.05;;;9.80;99.90;;;;;;5050324;28;20032;-47
2023/03/18 07:55:34;;;;;;;8.02;2.95;;;9.80;99.90;;;;;;5049978;28;20393;-45
2023/03/18 07:58:00;;;;;;;7.13;3.05;;;9.80;99.90;;;;;;5042100;28;20033;-47
2023/03/18 08:00:26;;;;;;;9.55;3.63;;;9.80;99.90;;;;;;5050234;28;20381;-49
2023/03/18 08:02:52;;;;;;;9.95;4.10;;;9.80;99.90;;;;;;5032183;28;20033;-44
2023/03/18 08:05:18;;;;;;;11.45;4.32;;;9.90;99.90;;;;;;5050236;28;20390;-43
2023/03/18 08:07:43;;;;;;;8.25;4.32;;;9.90;99.90;;;;;;5050105;28;20101;-44
2023/03/18 08:10:10;;;;;;;8.55;4.50;;;9.90;99.90;;;;;;5050179;28;20052;-46
2023/03/18 08:12:36;;;;;;;8.10;4.50;;;10.00;99.90;;;;;;5050368;28;20310;-48
2023/03/18 08:15:03;;;;;;;10.57;4.72;;;10.00;99.90;;;;;;5049684;28;20060;-48
2023/03/18 08:17:29;;;;;;;9.50;4.55;;;10.00;99.90;;;;;;5050114;28;20478;-48
2023/03/18 08:19:55;;;;;;;8.23;4.32;;;10.00;99.90;;;;;;5050019;28;20036;-46
2023/03/18 08:22:21;;;;;;;5.78;4.30;;;10.10;99.90;;;;;;5036093;28;20017;-44
2023/03/18 08:24:47;;;;;;;12.02;5.20;;;10.10;99.90;;;;;;5049917;28;20018;-46
2023/03/18 08:27:12;;;;;;;10.77;4.97;;;10.10;99.90;;;;;;5047230;28;20160;-45
2023/03/18 08:29:38;;;;;;;10.07;5.28;;;10.10;99.90;;;;;;5049977;28;20116;-45
2023/03/18 08:32:04;;;;;;;11.98;5.30;;;10.00;99.90;;;;;;5049802;28;20108;-47
2023/03/18 08:34:30;;;;;;;9.80;5.07;;;10.00;99.90;;;;;;5033965;28;20100;-45
2023/03/18 08:36:55;;;;;;;12.07;5.28;;;9.90;99.90;;;;;;5053906;28;20497;-46
2023/03/18 08:39:21;;;;;;;8.88;5.70;;;9.80;99.90;;;;;;5039806;28;20029;-43
2023/03/18 08:41:47;;;;;;;9.77;5.53;;;9.90;99.90;;;;;;5053778;28;20424;-47
2023/03/18 08:44:14;;;;;;;8.57;5.18;;;9.80;99.90;;;;;;5053840;28;20107;-50
2023/03/18 08:46:40;;;;;;;11.82;5.75;;;9.80;99.90;;;;;;5053861;28;20029;-51
2023/03/18 08:49:06;;;;;;;13.32;6.45;;;9.80;99.90;;;;;;5053659;28;20017;-47
2023/03/18 08:51:33;;;;;;;13.43;6.05;;;9.80;99.90;;;;;;5053734;28;20018;-45
2023/03/18 08:53:59;;;;;;;13.32;6.07;;;9.80;99.90;;;;;;5053868;28;20048;-48
2023/03/18 08:56:26;;;;;;;8.48;4.90;;;9.70;99.90;;;;;;5051142;28;20456;-45
2023/03/18 08:58:51;;;;;;;10.55;4.82;;;9.70;99.90;;;;;;5046210;28;20025;-52
2023/03/18 09:01:20;;;;;;;7.53;4.47;;;9.70;99.90;;;;;;5053538;28;20025;-52
2023/03/18 09:03:47;;;;;;;8.75;4.90;;;9.60;99.90;;;;;;5050382;28;20397;-47
2023/03/18 09:06:13;;;;;;;8.40;4.47;;;9.60;99.90;;;;;;5052982;28;20029;-46
2023/03/18 09:08:39;;;;;;;7.68;4.18;;;9.60;99.90;;;;;;5053289;28;20492;-49
2023/03/18 09:11:06;;;;;;;7.50;4.32;;;9.70;99.90;;;;;;5053372;28;20111;-49
2023/03/18 09:13:32;;;;;;;8.48;4.22;;;9.70;99.90;;;;;;5053132;28;20017;-48
2023/03/18 09:15:58;;;;;;;6.05;3.78;;;9.70;99.90;;;;;;5053260;28;20514;-49
2023/03/18 09:18:24;;;;;;;7.63;4.13;;;9.70;99.90;;;;;;5053168;28;20175;-48
2023/03/18 09:20:51;;;;;;;7.63;3.95;;;9.80;99.90;;;;;;5053193;28;20025;-51
2023/03/18 09:23:17;;;;;;;9.35;4.80;;;9.70;99.90;;;;;;5053412;28;20108;-49
2023/03/18 09:25:45;;;;;;;8.43;4.35;;;9.70;99.90;;;;;;5052980;28;20028;-54
2023/03/18 09:28:11;;;;;;;11.13;7.03;;;9.80;99.90;;;;;;5048299;28;20385;-48
2023/03/18 09:30:37;;;;;;;7.57;5.18;;;9.80;99.90;;;;;;5052894;28;20434;-51
2023/03/18 09:33:05;;;;;;;9.82;5.20;;;9.90;99.90;;;;;;5052891;28;20017;-45
2023/03/18 09:35:31;;;;;;;8.50;4.60;;;9.90;99.90;;;;;;5052741;28;20071;-53
2023/03/18 09:37:57;;;;;;;9.63;5.28;;;9.90;99.90;;;;;;5052760;28;20033;-45
2023/03/18 09:40:32;;;;;;;10.95;5.03;;;9.90;99.90;;;;;;5052846;28;20750;-49
2023/03/18 09:43:16;;;;;;;13.00;5.28;;;10.00;99.90;;;;;;5052944;28;20029;-53
2023/03/18 09:46:04;;;;;;;13.65;5.15;;;10.10;99.90;;;;;;5051424;28;20067;-50
2023/03/18 09:49:03;;;;;;;12.82;4.88;;;10.10;99.90;;;;;;5052757;28;20016;-50
2023/03/18 09:51:42;;;;;;;13.80;4.63;;;10.10;99.90;;;;;;5040649;28;20166;-51
2023/03/18 09:54:07;;;;;;;16.00;5.00;;;10.20;99.90;;;;;;5052501;28;20033;-50
2023/03/18 09:56:35;;;;;;;12.05;4.60;;;10.20;99.90;;;;;;5049592;28;20013;-45
2023/03/18 09:59:02;;;;;;;16.45;3.65;;;10.30;99.90;;;;;;5028620;28;20043;-45
2023/03/18 10:01:29;;;;;;;15.35;4.93;;;10.40;99.90;;;;;;5052519;28;20025;-46
2023/03/18 10:04:14;;;;;;;22.95;4.40;;;10.40;99.90;;;;;;5052392;28;20025;-51
2023/03/18 10:06:43;;;;;;;15.63;3.80;;;10.40;99.90;;;;;;5039081;28;20024;-52
2023/03/18 10:09:27;;;;;;;11.80;3.45;;;10.60;99.90;;;;;;5045188;28;20030;-50
2023/03/18 10:12:15;;;;;;;13.90;3.80;;;10.70;99.90;;;;;;5050140;28;20046;-45
2023/03/18 10:15:12;;;;;;;19.08;4.05;;;10.70;99.90;;;;;;5052118;28;20082;-48
2023/03/18 10:17:40;;;;;;;15.25;3.15;;;10.90;99.90;;;;;;5041356;28;20048;-48
2023/03/18 10:20:16;;;;;;;9.85;2.35;;;10.90;99.90;;;;;;5052207;28;20071;-50
2023/03/18 10:23:08;;;;;;;10.43;3.15;;;11.00;99.90;;;;;;5052050;28;20025;-52
2023/03/18 10:25:44;;;;;;;8.82;1.92;;;11.10;99.90;;;;;;5028056;28;20033;-45
2023/03/18 10:28:40;;;;;;;9.30;2.13;;;11.20;99.90;;;;;;5045034;28;20634;-50
2023/03/18 10:31:09;;;;;;;8.88;2.83;;;11.30;99.90;;;;;;5021622;28;20113;-51
2023/03/18 10:33:40;;;;;;;10.25;1.60;;;11.40;99.90;;;;;;5051733;28;20025;-52
2023/03/18 10:36:15;;;;;;;10.88;2.08;;;11.40;99.90;;;;;;5051902;28;20079;-49
2023/03/18 10:38:44;;;;;;;10.25;1.60;;;11.50;99.90;;;;;;5051454;28;20112;-53
2023/03/18 10:41:24;;;;;;;;;;;11.60;99.90;;;;;;5052042;28;20032;-47
2023/03/18 10:43:53;;;;;;;8.18;2.08;;;11.70;99.90;;;;;;5051368;28;19934;-47
2023/03/18 10:46:23;;;;;;;7.43;1.70;;;11.80;99.90;;;;;;5051545;28;20107;-49
2023/03/18 10:48:59;;;;;;;7.93;1.58;;;11.80;99.90;;;;;;5051610;28;20025;-45
2023/03/18 10:51:44;;;;;;;11.98;1.60;;;11.80;99.90;;;;;;5038826;28;20075;-47
2023/03/18 10:54:14;;;;;;;7.15;1.30;;;11.90;99.90;;;;;;5033206;28;20033;-45
2023/03/18 10:56:40;;;;;;;5.50;1.25;;;12.00;99.90;;;;;;5050805;28;20017;-46
2023/03/18 10:59:14;;;;;;;8.25;1.30;;;12.10;99.90;;;;;;5050703;28;20025;-45
2023/03/18 11:01:42;;;;;;;7.85;1.27;;;11.90;99.90;;;;;;5051627;28;20032;-44
2023/03/18 11:04:13;;;;;;;10.23;1.80;;;11.80;99.90;;;;;;5051503;28;20025;-45
2023/03/18 11:06:47;;;;;;;8.70;1.50;;;11.80;99.90;;;;;;5051131;28;20020;-47
2023/03/18 11:09:17;;;;;;;10.68;1.70;;;11.80;99.90;;;;;;5051131;28;20481;-46
2023/03/18 11:11:45;;;;;;;8.68;1.67;;;11.70;99.90;;;;;;5051291;28;20021;-44
2023/03/18 11:14:19;;;;;;;5.45;0.90;;;11.60;99.90;;;;;;5051035;28;20032;-45
2023/03/18 11:17:03;;;;;;;6.93;1.73;;;11.50;99.90;;;;;;5050813;28;20044;-45
2023/03/18 11:19:40;;;;;;;7.57;1.30;;;11.50;99.90;;;;;;5050993;28;20037;-45
2023/03/18 11:22:08;;;;;;;7.13;1.42;;;11.50;99.90;;;;;;5050741;28;20123;-46
2023/03/18 11:24:41;;;;;;;8.80;1.65;;;11.40;99.90;;;;;;5050899;28;20448;-49
2023/03/18 11:27:13;;;;;;;7.72;1.50;;;11.40;99.90;;;;;;5044319;28;20551;-45
2023/03/18 11:29:45;;;;;;;9.05;1.65;;;11.40;99.90;;;;;;5050827;28;20039;-44
2023/03/18 11:32:32;;;;;;;6.55;1.30;;;11.30;99.90;;;;;;5042936;28;20018;-44
2023/03/18 11:35:01;;;;;;;6.70;1.48;;;11.20;99.90;;;;;;5050587;28;20064;-45
2023/03/18 11:37:32;;;;;;;3.63;1.33;;;11.00;99.90;;;;;;5041981;28;20068;-45
2023/03/18 11:40:13;;;;;;;9.05;1.60;;;11.20;99.90;;;;;;5050492;28;20083;-45
2023/03/18 11:42:40;;;;;;;5.78;1.17;;;11.30;99.90;;;;;;5050204;28;20028;-45
2023/03/18 11:45:25;;;;;;;5.95;1.30;;;11.40;99.90;;;;;;5050748;28;20021;-47
2023/03/18 11:47:51;;;;;;;4.97;1.40;;;11.40;99.90;;;;;;5050376;28;20025;-45
2023/03/18 11:50:25;;;;;;;8.02;1.70;;;11.70;99.90;;;;;;5032667;28;20083;-45
2023/03/18 11:52:56;;;;;;;9.38;2.10;;;11.90;99.90;;;;;;5039322;28;20052;-47
2023/03/18 11:55:39;;;;;;;7.80;1.60;;;11.90;99.90;;;;;;5050854;28;20083;-47
2023/03/18 11:58:14;;;;;;;8.43;1.60;;;11.90;99.90;;;;;;5047748;28;20132;-46
2023/03/18 12:01:13;;;;;;;8.63;1.58;;;11.90;99.90;;;;;;5050593;28;20108;-43
2023/03/18 12:04:16;;;;;;;8.05;2.00;;;12.10;99.90;;;;;;5050754;28;20035;-49
2023/03/18 12:07:02;;;;;;;11.00;2.13;;;12.30;99.90;;;;;;5034460;28;20047;-46
2023/03/18 12:09:37;;;;;;;8.82;2.17;;;12.30;99.90;;;;;;5051906;28;20035;-48
2023/03/18 12:12:23;;;;;;;10.80;2.20;;;12.20;99.90;;;;;;5030047;28;20025;-45
2023/03/18 12:14:55;;;;;;;8.23;2.00;;;12.20;99.90;;;;;;5053072;28;20109;-44
2023/03/18 12:17:34;;;;;;;10.75;2.35;;;12.40;99.90;;;;;;5045483;28;20037;-47
2023/03/18 12:20:13;;;;;;;9.23;1.92;;;13.40;99.90;;;;;;5050727;28;20520;-50
2023/03/18 12:23:20;;;;;;;9.68;1.75;;;14.40;99.90;;;;;;5051010;28;20029;-44
2023/03/18 12:26:17;;;;;;;8.25;1.80;;;14.70;99.90;;;;;;5049723;28;20090;-44
2023/03/18 12:28:51;;;;;;;10.95;1.90;;;15.30;99.90;;;;;;5010970;28;20065;-44
2023/03/18 12:31:28;;;;;;;7.35;1.88;;;15.80;99.90;;;;;;5048569;28;20048;-48
2023/03/18 12:34:00;;;;;;;9.68;2.28;;;16.20;99.90;;;;;;5048728;28;20029;-44
2023/03/18 12:36:47;;;;;;;6.43;1.38;;;17.00;99.90;;;;;;5051657;28;20021;-45
2023/03/18 12:39:32;;;;;;;9.57;1.67;;;18.50;99.90;;;;;;5031344;28;20036;-50
2023/03/18 12:42:17;;;;;;;6.03;1.55;;;19.90;99.90;;;;;;5051142;28;20477;-44
2023/03/18 12:45:13;;;;;;;7.15;1.42;;;21.20;96.50;;;;;;5053747;28;20021;-45
2023/03/18 12:47:50;;;;;;;9.63;1.90;;;21.30;91.90;;;;;;5049413;28;20022;-44
2023/03/18 12:50:32;;;;;;;5.25;1.20;;;20.40;92.90;;;;;;5027894;28;20047;-46
2023/03/18 12:53:01;;;;;;;6.38;1.45;;;20.10;92.40;;;;;;5051146;28;20025;-44
2023/03/18 12:55:38;;;;;;;5.93;1.23;;;19.30;91.90;;;;;;5053595;28;20017;-44
2023/03/18 12:58:15;;;;;;;7.00;1.42;;;18.30;95.70;;;;;;5019480;28;20042;-45